This is the latest recevied weather packets stored in our database for station/object K1BES. If no packets are shown the sender has not sent any weather packets the latest 10 day(s).
| Time | Temp. | Humidity | Pressure | Rain* | Wind** | Luminosity | Snow |
|---|---|---|---|---|---|---|---|
| 1777918656 | 31.11° C | 46% | 1016.9 hPa | 0 mm | - | 1089 W/m² | - |
| 1777918353 | 30.56° C | 46% | 1016.9 hPa | 0 mm | - | 1132 W/m² | - |
| 1777918052 | 30.56° C | 47% | 1016.9 hPa | 0 mm | - | 1150 W/m² | - |
| 1777917750 | 30.56° C | 46% | 1016.9 hPa | 0 mm | - | 1070 W/m² | - |
| 1777917447 | 29.44° C | 49% | 1016.8 hPa | 0 mm | - | 1090 W/m² | - |
| 1777917144 | 28.89° C | 51% | 1017 hPa | 0 mm | - | 1116 W/m² | - |
| 1777916842 | 28.33° C | 52% | 1017.2 hPa | 0 mm | - | 1119 W/m² | - |
| 1777916540 | 29.44° C | 51% | 1017.3 hPa | 0 mm | - | 265 W/m² | - |
| 1777916236 | 30.56° C | 47% | 1017.2 hPa | 0 mm | - | 256 W/m² | - |
| 1777915933 | 30° C | 49% | 1017.3 hPa | 0 mm | - | 1146 W/m² | - |
| 1777915629 | 30° C | 49% | 1017.5 hPa | 0 mm | - | 1097 W/m² | - |
| 1777915326 | 28.89° C | 51% | 1017.5 hPa | 0 mm | - | 1090 W/m² | - |
| 1777915023 | 27.78° C | 53% | 1017.6 hPa | 0 mm | - | 1202 W/m² | - |
| 1777914720 | 28.33° C | 52% | 1017.5 hPa | 0 mm | - | 233 W/m² | - |
| 1777914416 | 28.89° C | 51% | 1017.7 hPa | 0 mm | - | 286 W/m² | - |
| 1777914114 | 28.89° C | 52% | 1017.9 hPa | 0 mm | - | 472 W/m² | - |
| 1777913809 | 28.89° C | 50% | 1018.1 hPa | 0 mm | - | 382 W/m² | - |
| 1777913506 | 29.44° C | 50% | 1018 hPa | 0 mm | - | 469 W/m² | - |
| 1777913203 | 28.89° C | 52% | 1018 hPa | 0 mm | - | 772 W/m² | - |
| 1777912898 | 28.89° C | 51% | 1018 hPa | 0 mm | - | 348 W/m² | - |
| 1777912596 | 28.33° C | 51% | 1018.1 hPa | 0 mm | - | 463 W/m² | - |
| 1777912292 | 28.89° C | 50% | 1018.1 hPa | 0 mm | - | 278 W/m² | - |
| 1777911988 | 29.44° C | 49% | 1017.9 hPa | 0 mm | - | 1174 W/m² | - |
| 1777911684 | 29.44° C | 50% | 1018.2 hPa | 0 mm | - | 1098 W/m² | - |
| 1777911380 | 28.89° C | 51% | 1018.1 hPa | 0 mm | - | 1121 W/m² | - |
* Rain latest hour (hover to see other rain measurements)
** Current wind speed in m/s (hover to see current wind gust speed)